Time;durP1;ratioP1;P1;durP2;ratioP2;P2;SDS_P1;SDS_P2;PMS_P1;PMS_P2;Temp;Humidity;BMP_temperature;BMP_pressure;BME280_temperature;BME280_humidity;BME280_pressure;Samples;Min_cycle;Max_cycle;Signal;HPM_P1;HPM_P2
2023/05/08 02:01:53;;;;;;;11.00;5.68;;;;;;;;;;4523588;27;20456;-79
2023/05/08 02:04:20;;;;;;;10.50;5.97;;;;;;;;;;4296532;33;20845;-73
2023/05/08 02:06:46;;;;;;;12.88;5.55;;;;;;;;;;4257066;33;20043;-72
2023/05/08 02:09:13;;;;;;;10.95;5.37;;;;;;;;;;4265097;33;20042;-73
2023/05/08 02:11:41;;;;;;;9.82;4.65;;;;;;;;;;4267165;33;20064;-81
2023/05/08 02:14:08;;;;;;;11.32;5.43;;;;;;;;;;4264414;33;20042;-71
2023/05/08 02:16:36;;;;;;;8.85;5.15;;;;;;;;;;4252537;33;20186;-73
2023/05/08 02:19:03;;;;;;;10.10;5.45;;;;;;;;;;4253209;33;20042;-72
2023/05/08 02:21:30;;;;;;;7.57;4.50;;;;;;;;;;4252300;33;20042;-73
2023/05/08 02:23:57;;;;;;;12.93;5.40;;;;;;;;;;4251401;33;20088;-75
2023/05/08 02:26:24;;;;;;;8.35;5.78;;;;;;;;;;4253064;33;20073;-72
2023/05/08 02:28:55;;;;;;;11.15;5.47;;;;;;;;;;4253302;33;20873;-72
2023/05/08 02:31:21;;;;;;;12.50;6.00;;;;;;;;;;4262573;33;20156;-74
2023/05/08 02:33:48;;;;;;;7.35;4.75;;;;;;;;;;4268872;33;20038;-78
2023/05/08 02:36:15;;;;;;;13.48;5.15;;;;;;;;;;4278049;33;20048;-71
2023/05/08 02:38:47;;;;;;;7.75;4.95;;;;;;;;;;4306431;33;20463;-72
2023/05/08 02:41:14;;;;;;;10.43;4.87;;;;;;;;;;4310631;33;20049;-72
2023/05/08 02:43:41;;;;;;;8.73;4.60;;;;;;;;;;4310931;33;20040;-73
2023/05/08 02:46:23;;;;;;;12.10;4.60;;;;;;;;;;4309182;33;20074;-73
2023/05/08 02:48:49;;;;;;;;;;;;;;;;;;4311112;33;20055;-72
2023/05/08 02:51:21;;;;;;;9.63;5.00;;;;;;;;;;4309567;33;20314;-74
2023/05/08 02:53:48;;;;;;;;;;;;;;;;;;4308815;33;20093;-73
2023/05/08 02:56:20;;;;;;;8.77;3.80;;;;;;;;;;4309855;33;19963;-73
2023/05/08 02:59:06;;;;;;;10.40;5.35;;;;;;;;;;4310069;33;20053;-73
2023/05/08 03:01:43;;;;;;;6.05;4.05;;;;;;;;;;4307857;33;20041;-79
2023/05/08 03:04:18;;;;;;;12.70;5.18;;;;;;;;;;4310297;33;20049;-71
2023/05/08 03:06:46;;;;;;;15.98;4.87;;;;;;;;;;4310346;33;20044;-71
2023/05/08 03:09:18;;;;;;;8.18;4.85;;;;;;;;;;4309906;33;20070;-78
2023/05/08 03:11:47;;;;;;;6.60;4.03;;;;;;;;;;4309625;33;20070;-72
2023/05/08 03:14:15;;;;;;;11.55;4.40;;;;;;;;;;4310461;33;20041;-73
2023/05/08 03:16:49;;;;;;;9.27;5.10;;;;;;;;;;4280798;33;20072;-71
2023/05/08 03:19:19;;;;;;;13.23;4.72;;;;;;;;;;4273756;33;20447;-80
2023/05/08 03:21:46;;;;;;;7.32;4.53;;;;;;;;;;4252370;33;20065;-72
2023/05/08 03:24:14;;;;;;;14.25;6.03;;;;;;;;;;4252633;33;20459;-73
2023/05/08 03:26:41;;;;;;;12.95;5.75;;;;;;;;;;4252535;33;20412;-71
2023/05/08 03:29:07;;;;;;;8.05;5.18;;;;;;;;;;4264588;33;20037;-72
2023/05/08 03:31:34;;;;;;;6.32;4.53;;;;;;;;;;4264563;33;20071;-77
2023/05/08 03:34:01;;;;;;;7.15;4.75;;;;;;;;;;4266223;33;20050;-72
2023/05/08 03:36:29;;;;;;;6.30;4.53;;;;;;;;;;4265563;33;20101;-71
2023/05/08 03:38:55;;;;;;;13.70;4.80;;;;;;;;;;4266192;33;20138;-72
2023/05/08 03:41:24;;;;;;;9.77;4.62;;;;;;;;;;4265624;33;20079;-78
2023/05/08 03:43:50;;;;;;;8.32;4.80;;;;;;;;;;4265017;33;20054;-72
2023/05/08 03:46:16;;;;;;;8.93;5.40;;;;;;;;;;4265338;33;20075;-72
2023/05/08 03:48:50;;;;;;;6.10;4.40;;;;;;;;;;4312270;33;20044;-71
2023/05/08 03:51:17;;;;;;;11.40;5.18;;;;;;;;;;4325937;33;20051;-74
2023/05/08 03:53:43;;;;;;;8.70;5.20;;;;;;;;;;4321706;33;20045;-73
2023/05/08 03:56:10;;;;;;;6.43;4.57;;;;;;;;;;4311563;33;20428;-72
2023/05/08 03:58:40;;;;;;;10.10;5.30;;;;;;;;;;4311570;33;20044;-72
2023/05/08 04:01:10;;;;;;;9.88;4.50;;;;;;;;;;4311585;33;20397;-72
2023/05/08 04:03:40;;;;;;;8.93;4.57;;;;;;;;;;4307866;33;20079;-74
2023/05/08 04:06:16;;;;;;;10.95;5.40;;;;;;;;;;4311608;33;20045;-72
2023/05/08 04:08:54;;;;;;;11.48;6.47;;;;;;;;;;4309830;33;20078;-73
2023/05/08 04:11:25;;;;;;;7.53;4.90;;;;;;;;;;4309275;33;20048;-73
2023/05/08 04:13:52;;;;;;;;;;;;;;;;;;4312230;33;20053;-74
2023/05/08 04:16:20;;;;;;;5.00;3.85;;;;;;;;;;4311710;33;20017;-72
2023/05/08 04:18:48;;;;;;;12.20;4.47;;;;;;;;;;4280091;33;20038;-72
2023/05/08 04:21:18;;;;;;;10.07;4.78;;;;;;;;;;4278649;33;20057;-74
2023/05/08 04:23:44;;;;;;;13.32;5.35;;;;;;;;;;4280033;33;20033;-72
2023/05/08 04:26:12;;;;;;;11.95;5.62;;;;;;;;;;4293664;33;20082;-74
2023/05/08 04:28:39;;;;;;;15.80;6.53;;;;;;;;;;4294291;33;20038;-73
2023/05/08 04:31:06;;;;;;;8.35;5.35;;;;;;;;;;4292380;33;20094;-73
2023/05/08 04:33:34;;;;;;;8.77;5.15;;;;;;;;;;4294337;33;20070;-73
2023/05/08 04:36:01;;;;;;;10.90;6.10;;;;;;;;;;4293954;33;20053;-73
2023/05/08 04:38:27;;;;;;;8.55;5.68;;;;;;;;;;4294243;33;20545;-74
2023/05/08 04:40:54;;;;;;;10.68;5.50;;;;;;;;;;4293489;33;20049;-74
2023/05/08 04:43:21;;;;;;;6.87;5.03;;;;;;;;;;4293391;33;20070;-73
2023/05/08 04:45:47;;;;;;;5.97;3.97;;;;;;;;;;4294359;33;20037;-72
2023/05/08 04:48:14;;;;;;;6.15;4.05;;;;;;;;;;4294202;33;20752;-72
2023/05/08 04:50:40;;;;;;;8.88;4.37;;;;;;;;;;4293578;33;20041;-73
2023/05/08 04:53:06;;;;;;;5.85;3.80;;;;;;;;;;4308646;33;20052;-81
2023/05/08 04:55:32;;;;;;;7.87;4.90;;;;;;;;;;4315717;33;20060;-73
2023/05/08 04:57:59;;;;;;;7.25;4.22;;;;;;;;;;4297560;33;20455;-73
2023/05/08 05:00:25;;;;;;;11.50;4.53;;;;;;;;;;4293905;33;20075;-73
2023/05/08 05:02:51;;;;;;;10.50;4.70;;;;;;;;;;4246886;33;20072;-73
2023/05/08 05:05:18;;;;;;;4.93;3.55;;;;;;;;;;4236974;33;20109;-80
2023/05/08 05:07:44;;;;;;;5.78;3.70;;;;;;;;;;4237541;33;20090;-77
2023/05/08 05:10:10;;;;;;;7.07;3.47;;;;;;;;;;4230818;33;20051;-74
2023/05/08 05:12:37;;;;;;;9.43;4.12;;;;;;;;;;4233815;33;20043;-74
2023/05/08 05:15:03;;;;;;;5.78;3.53;;;;;;;;;;4236239;33;20078;-79
2023/05/08 05:17:30;;;;;;;4.00;3.30;;;;;;;;;;4228349;33;20133;-75
2023/05/08 05:19:57;;;;;;;4.93;3.35;;;;;;;;;;4224767;34;20072;-75
2023/05/08 05:22:23;;;;;;;6.80;3.12;;;;;;;;;;4225530;33;20027;-73
2023/05/08 05:24:49;;;;;;;6.32;3.47;;;;;;;;;;4224377;33;20051;-74
2023/05/08 05:27:15;;;;;;;7.28;3.90;;;;;;;;;;4225297;33;20043;-75
2023/05/08 05:29:42;;;;;;;3.80;3.42;;;;;;;;;;4245104;33;20058;-75
2023/05/08 05:32:10;;;;;;;3.65;2.92;;;;;;;;;;4253632;33;20058;-74
2023/05/08 05:34:37;;;;;;;4.32;2.58;;;;;;;;;;4254066;33;20441;-74
2023/05/08 05:37:02;;;;;;;5.22;3.28;;;;;;;;;;4252643;33;20044;-74
2023/05/08 05:39:29;;;;;;;4.93;3.62;;;;;;;;;;4264624;33;20049;-74
2023/05/08 05:41:55;;;;;;;3.05;2.70;;;;;;;;;;4288481;33;20037;-74
2023/05/08 05:44:22;;;;;;;5.05;2.67;;;;;;;;;;4296704;33;20079;-74
2023/05/08 05:46:48;;;;;;;2.22;2.03;;;;;;;;;;4296627;33;20064;-75
2023/05/08 05:49:14;;;;;;;4.47;2.15;;;;;;;;;;4296460;33;20057;-73
2023/05/08 05:51:40;;;;;;;2.42;1.92;;;;;;;;;;4278126;33;20419;-80
2023/05/08 05:54:07;;;;;;;5.93;2.12;;;;;;;;;;4302456;33;20064;-74
2023/05/08 05:56:33;;;;;;;2.97;1.98;;;;;;;;;;4297187;33;20049;-75
2023/05/08 05:58:59;;;;;;;4.82;2.33;;;;;;;;;;4296484;33;20038;-73
2023/05/08 06:01:27;;;;;;;5.80;2.00;;;;;;;;;;4293649;33;20040;-75
2023/05/08 06:03:54;;;;;;;2.65;2.08;;;;;;;;;;4293875;33;20115;-73
2023/05/08 06:06:20;;;;;;;2.25;2.15;;;;;;;;;;4308374;33;20084;-74
2023/05/08 06:08:47;;;;;;;3.42;2.40;;;;;;;;;;4313143;33;20065;-75
2023/05/08 06:11:14;;;;;;;2.00;1.90;;;;;;;;;;4310011;33;20106;-74
2023/05/08 06:13:40;;;;;;;3.50;2.62;;;;;;;;;;4311499;33;20049;-78
2023/05/08 06:16:07;;;;;;;3.17;2.08;;;;;;;;;;4312110;33;20442;-74
2023/05/08 06:18:33;;;;;;;2.72;2.05;;;;;;;;;;4312057;33;20045;-74
2023/05/08 06:20:59;;;;;;;7.47;2.20;;;;;;;;;;4324219;33;20054;-74
2023/05/08 06:23:26;;;;;;;3.55;2.03;;;;;;;;;;4324703;33;20401;-74
2023/05/08 06:25:52;;;;;;;3.35;2.12;;;;;;;;;;4321889;33;20470;-78
2023/05/08 06:28:19;;;;;;;2.20;1.65;;;;;;;;;;4322533;33;20130;-74
2023/05/08 06:30:45;;;;;;;2.55;2.35;;;;;;;;;;4317428;33;20056;-74
2023/05/08 06:33:11;;;;;;;5.53;2.95;;;;;;;;;;4322008;33;20539;-74
2023/05/08 06:35:37;;;;;;;2.67;2.08;;;;;;;;;;4323310;33;20056;-75
2023/05/08 06:38:03;;;;;;;2.20;2.05;;;;;;;;;;4323342;33;20053;-84
2023/05/08 06:40:30;;;;;;;4.85;2.30;;;;;;;;;;4325130;33;20040;-76
2023/05/08 06:42:56;;;;;;;5.37;1.98;;;;;;;;;;4324826;33;20060;-75
2023/05/08 06:45:22;;;;;;;2.42;2.22;;;;;;;;;;4324597;33;20090;-73
2023/05/08 06:47:48;;;;;;;2.75;2.30;;;;;;;;;;4323513;33;20198;-76
2023/05/08 06:50:14;;;;;;;2.12;1.98;;;;;;;;;;4321290;33;20064;-75
2023/05/08 06:52:41;;;;;;;4.30;2.70;;;;;;;;;;4314800;33;20075;-75
2023/05/08 06:55:07;;;;;;;1.90;1.62;;;;;;;;;;4312770;33;20075;-72
2023/05/08 06:57:33;;;;;;;2.53;2.33;;;;;;;;;;4310706;33;20037;-75
2023/05/08 06:59:59;;;;;;;7.15;2.45;;;;;;;;;;4302058;33;20508;-78
2023/05/08 07:02:26;;;;;;;5.12;1.70;;;;;;;;;;4304626;33;20065;-73
2023/05/08 07:04:52;;;;;;;2.30;2.10;;;;;;;;;;4300729;33;20041;-75
2023/05/08 07:07:24;;;;;;;3.55;2.53;;;;;;;;;;4300602;33;20054;-74
2023/05/08 07:09:57;;;;;;;2.33;2.12;;;;;;;;;;4298273;33;20082;-73
2023/05/08 07:12:23;;;;;;;7.20;2.35;;;;;;;;;;4298962;33;20474;-74
2023/05/08 07:14:49;;;;;;;3.08;2.22;;;;;;;;;;4298289;33;20128;-73
2023/05/08 07:17:15;;;;;;;2.87;2.37;;;;;;;;;;4294976;33;20546;-75
2023/05/08 07:19:41;;;;;;;4.28;3.10;;;;;;;;;;4280283;33;20068;-80
2023/05/08 07:22:07;;;;;;;2.33;2.22;;;;;;;;;;4291906;33;20050;-74
2023/05/08 07:24:34;;;;;;;2.53;2.33;;;;;;;;;;4294585;33;20055;-73
2023/05/08 07:27:00;;;;;;;3.03;2.22;;;;;;;;;;4294551;33;20042;-73
2023/05/08 07:29:26;;;;;;;4.55;2.30;;;;;;;;;;4294227;33;20057;-75
2023/05/08 07:31:53;;;;;;;5.80;2.83;;;;;;;;;;4290506;33;20071;-79
2023/05/08 07:34:19;;;;;;;3.35;2.83;;;;;;;;;;4283029;33;20398;-74
2023/05/08 07:36:45;;;;;;;7.95;2.35;;;;;;;;;;4289949;33;20151;-75
2023/05/08 07:39:11;;;;;;;2.65;2.45;;;;;;;;;;4292303;33;20053;-76
2023/05/08 07:41:39;;;;;;;4.65;1.90;;;;;;;;;;4293651;33;20139;-74
2023/05/08 07:44:05;;;;;;;2.45;2.25;;;;;;;;;;4292200;33;20098;-74
2023/05/08 07:46:32;;;;;;;6.37;2.67;;;;;;;;;;4294243;33;20463;-75
2023/05/08 07:48:58;;;;;;;13.93;2.55;;;;;;;;;;4289470;33;20083;-74
2023/05/08 07:51:25;;;;;;;4.32;3.15;;;;;;;;;;4278704;33;20495;-73
2023/05/08 07:53:51;;;;;;;5.07;2.72;;;;;;;;;;4273878;33;20037;-74
2023/05/08 07:56:17;;;;;;;4.60;2.42;;;;;;;;;;4272974;33;20059;-73
2023/05/08 07:58:44;;;;;;;8.05;2.80;;;;;;;;;;4274235;33;20073;-76
2023/05/08 08:01:11;;;;;;;3.90;2.90;;;;;;;;;;4279284;33;20037;-74
2023/05/08 08:03:37;;;;;;;7.72;3.08;;;;;;;;;;4269434;33;20067;-73
2023/05/08 08:06:03;;;;;;;6.22;3.67;;;;;;;;;;4276281;33;20063;-75
2023/05/08 08:08:29;;;;;;;2.45;2.17;;;;;;;;;;4278035;33;20178;-75
2023/05/08 08:10:56;;;;;;;6.10;2.25;;;;;;;;;;4278369;33;20287;-77
2023/05/08 08:13:28;;;;;;;2.53;2.33;;;;;;;;;;4279562;33;20029;-72
2023/05/08 08:15:54;;;;;;;8.48;3.00;;;;;;;;;;4279570;33;20053;-75
2023/05/08 08:18:20;;;;;;;8.93;2.60;;;;;;;;;;4269644;33;20038;-78
2023/05/08 08:20:46;;;;;;;4.75;2.70;;;;;;;;;;4276444;33;20045;-74
2023/05/08 08:23:12;;;;;;;6.80;2.78;;;;;;;;;;4288035;33;20041;-76
2023/05/08 08:25:39;;;;;;;5.70;2.53;;;;;;;;;;4292233;33;20100;-73
2023/05/08 08:28:05;;;;;;;8.45;2.53;;;;;;;;;;4289655;33;20136;-74
2023/05/08 08:30:31;;;;;;;2.97;2.42;;;;;;;;;;4290351;33;20052;-75
2023/05/08 08:33:00;;;;;;;2.28;2.17;;;;;;;;;;4288341;33;20048;-75
2023/05/08 08:35:28;;;;;;;2.42;2.20;;;;;;;;;;4287395;33;20053;-75
2023/05/08 08:37:54;;;;;;;3.80;2.28;;;;;;;;;;4275024;33;20160;-72
2023/05/08 08:40:22;;;;;;;2.58;2.37;;;;;;;;;;4262619;33;20180;-74
2023/05/08 08:42:48;;;;;;;2.30;2.10;;;;;;;;;;4261698;33;20084;-75
2023/05/08 08:45:14;;;;;;;3.30;2.75;;;;;;;;;;4262957;33;20045;-75
2023/05/08 08:47:43;;;;;;;2.35;2.15;;;;;;;;;;4262910;33;20369;-75
2023/05/08 08:50:11;;;;;;;11.75;3.55;;;;;;;;;;4263912;33;20494;-74
2023/05/08 08:52:40;;;;;;;13.07;2.33;;;;;;;;;;4264638;33;20104;-74
2023/05/08 08:55:08;;;;;;;3.10;2.03;;;;;;;;;;4263918;33;20565;-75
2023/05/08 08:57:36;;;;;;;4.25;2.87;;;;;;;;;;4264314;33;20104;-74
2023/05/08 09:00:04;;;;;;;4.50;2.67;;;;;;;;;;4299145;33;20041;-74
2023/05/08 09:02:30;;;;;;;2.42;2.25;;;;;;;;;;4302396;33;20069;-76
2023/05/08 09:04:58;;;;;;;2.78;2.22;;;;;;;;;;4302355;33;20098;-83
2023/05/08 09:07:24;;;;;;;8.75;2.37;;;;;;;;;;4303166;33;20063;-74
2023/05/08 09:09:51;;;;;;;3.03;2.60;;;;;;;;;;4308546;33;20066;-74
2023/05/08 09:12:17;;;;;;;7.18;2.17;;;;;;;;;;4310869;33;20053;-76
2023/05/08 09:14:43;;;;;;;2.60;2.25;;;;;;;;;;4310800;33;20045;-83
2023/05/08 09:17:10;;;;;;;3.03;2.72;;;;;;;;;;4309745;33;20060;-74
2023/05/08 09:19:36;;;;;;;5.50;2.47;;;;;;;;;;4310573;33;20124;-74
2023/05/08 09:22:03;;;;;;;6.03;2.45;;;;;;;;;;4310311;33;20033;-74
2023/05/08 09:25:08;;;;;;;4.25;2.37;;;;;;;;;;4307567;33;20048;-73
2023/05/08 09:27:35;;;;;;;2.42;2.00;;;;;;;;;;4247333;33;20127;-74
2023/05/08 09:30:06;;;;;;;7.47;2.72;;;;;;;;;;4251046;33;20052;-74
2023/05/08 09:32:33;;;;;;;3.80;2.42;;;;;;;;;;4254171;33;20053;-76
2023/05/08 09:35:00;;;;;;;7.00;2.40;;;;;;;;;;4247932;33;20080;-74
2023/05/08 09:37:27;;;;;;;3.40;1.75;;;;;;;;;;4239728;33;20430;-75
2023/05/08 09:39:53;;;;;;;2.70;2.42;;;;;;;;;;4242562;33;20057;-75
2023/05/08 09:42:19;;;;;;;3.75;2.70;;;;;;;;;;4250490;33;20099;-75
2023/05/08 09:44:48;;;;;;;2.42;2.22;;;;;;;;;;4248622;33;20050;-79
2023/05/08 09:47:21;;;;;;;5.80;1.92;;;;;;;;;;4251000;33;20510;-75
2023/05/08 09:49:58;;;;;;;2.70;2.20;;;;;;;;;;4264264;33;20059;-75
2023/05/08 09:52:24;;;;;;;2.33;2.12;;;;;;;;;;4253066;33;20091;-80
2023/05/08 09:55:00;;;;;;;3.83;2.20;;;;;;;;;;4250084;33;20047;-74
2023/05/08 09:57:27;;;;;;;3.78;2.12;;;;;;;;;;4239660;33;20031;-73
2023/05/08 10:00:07;;;;;;;7.97;2.08;;;;;;;;;;4292491;33;20102;-73
2023/05/08 10:02:33;;;;;;;5.15;2.25;;;;;;;;;;4290944;33;20060;-73
2023/05/08 10:05:00;;;;;;;5.20;2.17;;;;;;;;;;4294394;33;20103;-74
2023/05/08 10:07:37;;;;;;;3.70;1.90;;;;;;;;;;4290464;33;20055;-73
2023/05/08 10:10:04;;;;;;;3.92;2.28;;;;;;;;;;4295123;33;20052;-74
2023/05/08 10:12:31;;;;;;;3.10;1.98;;;;;;;;;;4293638;33;20444;-74
2023/05/08 10:14:57;;;;;;;2.58;2.03;;;;;;;;;;4286212;33;21229;-75
2023/05/08 10:17:25;;;;;;;7.03;2.10;;;;;;;;;;4280781;33;20440;-75
2023/05/08 10:19:56;;;;;;;4.40;1.92;;;;;;;;;;4275708;33;20533;-75
2023/05/08 10:22:24;;;;;;;1.77;1.67;;;;;;;;;;4277653;33;20038;-76
2023/05/08 10:24:54;;;;;;;2.67;2.00;;;;;;;;;;4278897;33;20513;-76
2023/05/08 10:27:26;;;;;;;2.30;1.75;;;;;;;;;;4280490;33;20063;-76
2023/05/08 10:29:54;;;;;;;2.95;2.40;;;;;;;;;;4264848;33;20183;-74
2023/05/08 10:32:21;;;;;;;2.03;1.60;;;;;;;;;;4231019;33;21557;-74
2023/05/08 10:34:50;;;;;;;3.70;2.37;;;;;;;;;;4219778;33;20050;-74
2023/05/08 10:37:17;;;;;;;1.95;1.62;;;;;;;;;;4234866;33;20408;-74
2023/05/08 10:39:44;;;;;;;3.42;1.77;;;;;;;;;;4223432;33;20043;-75
2023/05/08 10:42:12;;;;;;;2.00;1.83;;;;;;;;;;4221717;33;20057;-81
2023/05/08 10:44:38;;;;;;;2.35;1.98;;;;;;;;;;4222380;33;20132;-76
2023/05/08 10:47:04;;;;;;;5.25;1.95;;;;;;;;;;4224822;33;20826;-73
2023/05/08 10:49:39;;;;;;;2.33;2.12;;;;;;;;;;4236823;33;20167;-74
2023/05/08 10:52:15;;;;;;;2.25;2.05;;;;;;;;;;4221501;33;20055;-78
2023/05/08 10:54:57;;;;;;;3.22;2.10;;;;;;;;;;4200700;34;20897;-75
2023/05/08 10:57:23;;;;;;;2.25;2.15;;;;;;;;;;4198649;34;20085;-74
2023/05/08 10:59:49;;;;;;;2.65;1.73;;;;;;;;;;4191329;34;20088;-81
2023/05/08 11:02:24;;;;;;;7.15;2.20;;;;;;;;;;4343497;28;20070;-83
2023/05/08 11:04:51;;;;;;;3.87;2.30;;;;;;;;;;4236250;33;20070;-75
2023/05/08 11:07:17;;;;;;;3.10;2.25;;;;;;;;;;4237231;33;20130;-75
2023/05/08 11:09:46;;;;;;;1.98;1.75;;;;;;;;;;4236897;33;20076;-74
2023/05/08 11:12:25;;;;;;;2.62;1.95;;;;;;;;;;4223247;33;20089;-77
2023/05/08 11:14:57;;;;;;;5.85;1.77;;;;;;;;;;4215737;34;20426;-77
2023/05/08 11:17:23;;;;;;;1.52;1.40;;;;;;;;;;4216225;34;20040;-77
2023/05/08 11:19:57;;;;;;;3.53;2.00;;;;;;;;;;4213187;33;20061;-78
2023/05/08 11:22:33;;;;;;;1.87;1.77;;;;;;;;;;4213622;34;20059;-76
2023/05/08 11:24:59;;;;;;;2.80;1.95;;;;;;;;;;4204995;34;20107;-77
2023/05/08 11:27:32;;;;;;;3.37;2.12;;;;;;;;;;4203299;34;20031;-75
2023/05/08 11:30:16;;;;;;;1.80;1.70;;;;;;;;;;4204136;34;20509;-76
2023/05/08 11:33:02;;;;;;;3.42;2.10;;;;;;;;;;4191184;34;20040;-75
2023/05/08 11:35:45;;;;;;;5.00;1.80;;;;;;;;;;4200520;34;20062;-76
2023/05/08 11:38:16;;;;;;;6.45;1.83;;;;;;;;;;4201568;34;20094;-75
2023/05/08 11:40:56;;;;;;;2.45;1.67;;;;;;;;;;4201602;34;20117;-75
2023/05/08 11:43:30;;;;;;;3.10;2.33;;;;;;;;;;4214169;33;20066;-76
2023/05/08 11:45:58;;;;;;;1.95;1.85;;;;;;;;;;4238824;33;20110;-81
2023/05/08 11:48:25;;;;;;;2.35;1.95;;;;;;;;;;4249297;33;20522;-77
2023/05/08 11:50:51;;;;;;;5.32;2.05;;;;;;;;;;4256218;33;20068;-80
2023/05/08 11:53:17;;;;;;;1.85;1.75;;;;;;;;;;4256171;33;20067;-76
2023/05/08 11:55:47;;;;;;;3.80;1.98;;;;;;;;;;4265085;33;20063;-76
2023/05/08 11:58:14;;;;;;;1.77;1.67;;;;;;;;;;4265715;33;20416;-76
2023/05/08 12:00:43;;;;;;;4.05;2.12;;;;;;;;;;4264246;33;20054;-77
2023/05/08 12:03:16;;;;;;;4.43;2.40;;;;;;;;;;4274015;33;20046;-76
2023/05/08 12:05:50;;;;;;;2.25;1.95;;;;;;;;;;4277443;33;20090;-74
2023/05/08 12:08:17;;;;;;;3.28;1.70;;;;;;;;;;4279115;33;20075;-74
2023/05/08 12:10:50;;;;;;;2.42;2.25;;;;;;;;;;4291672;33;20071;-77
2023/05/08 12:13:19;;;;;;;1.87;1.77;;;;;;;;;;4289221;33;20091;-74
2023/05/08 12:15:46;;;;;;;2.17;1.58;;;;;;;;;;4285710;33;20081;-75
2023/05/08 12:18:13;;;;;;;2.83;1.80;;;;;;;;;;4291397;33;20070;-77
2023/05/08 12:20:39;;;;;;;5.20;1.85;;;;;;;;;;4287005;33;20049;-78
2023/05/08 12:23:05;;;;;;;1.98;1.87;;;;;;;;;;4234962;33;20512;-76
2023/05/08 12:25:31;;;;;;;2.53;2.30;;;;;;;;;;4230747;33;20067;-76
2023/05/08 12:27:58;;;;;;;1.75;1.65;;;;;;;;;;4240301;33;20113;-75
2023/05/08 12:30:25;;;;;;;3.12;2.37;;;;;;;;;;4235262;33;20062;-75
2023/05/08 12:32:51;;;;;;;3.47;2.00;;;;;;;;;;4233396;33;20791;-78
2023/05/08 12:35:18;;;;;;;2.60;2.40;;;;;;;;;;4215626;33;20067;-75
2023/05/08 12:37:44;;;;;;;4.22;1.90;;;;;;;;;;4216437;33;20032;-75
2023/05/08 12:40:23;;;;;;;3.30;2.50;;;;;;;;;;4227488;33;20457;-76
2023/05/08 12:42:49;;;;;;;4.22;2.17;;;;;;;;;;4225772;33;20061;-77
2023/05/08 12:45:26;;;;;;;3.72;1.75;;;;;;;;;;4223088;33;20077;-76
2023/05/08 12:47:56;;;;;;;5.03;3.00;;;;;;;;;;4222521;33;20060;-76
2023/05/08 12:50:25;;;;;;;3.65;1.60;;;;;;;;;;4226965;33;20065;-76
2023/05/08 12:52:52;;;;;;;6.60;1.62;;;;;;;;;;4244830;33;20227;-78
2023/05/08 12:55:22;;;;;;;2.30;1.73;;;;;;;;;;4268410;33;20064;-76
2023/05/08 12:57:50;;;;;;;2.00;1.90;;;;;;;;;;4275216;33;20360;-76
2023/05/08 13:00:17;;;;;;;1.80;1.70;;;;;;;;;;4249660;33;20072;-75
2023/05/08 13:02:53;;;;;;;1.62;1.52;;;;;;;;;;4249063;33;20236;-75
2023/05/08 13:05:20;;;;;;;2.28;1.95;;;;;;;;;;4233836;33;20546;-75
2023/05/08 13:07:47;;;;;;;4.28;2.85;;;;;;;;;;4233528;33;20042;-76
2023/05/08 13:10:14;;;;;;;1.12;1.12;;;;;;;;;;4231803;33;20054;-76
2023/05/08 13:12:40;;;;;;;5.72;1.77;;;;;;;;;;4208571;34;20069;-75
2023/05/08 13:15:06;;;;;;;4.40;1.50;;;;;;;;;;4206074;34;20064;-77
2023/05/08 13:17:32;;;;;;;3.58;1.80;;;;;;;;;;4206867;34;20108;-76
2023/05/08 13:19:59;;;;;;;2.10;1.75;;;;;;;;;;4207855;34;20073;-74
2023/05/08 13:22:25;;;;;;;2.33;1.85;;;;;;;;;;4235205;33;20050;-72
2023/05/08 13:24:51;;;;;;;3.15;2.60;;;;;;;;;;4235291;33;20073;-73
2023/05/08 13:27:17;;;;;;;1.70;1.60;;;;;;;;;;4233881;33;20468;-74
2023/05/08 13:29:44;;;;;;;1.65;1.58;;;;;;;;;;4219420;33;20085;-73
2023/05/08 13:32:10;;;;;;;1.90;1.70;;;;;;;;;;4223506;33;20998;-74
2023/05/08 13:34:36;;;;;;;2.87;1.80;;;;;;;;;;4217376;33;20055;-73
2023/05/08 13:37:02;;;;;;;6.12;1.70;;;;;;;;;;4226628;33;20030;-73
2023/05/08 13:39:31;;;;;;;7.30;1.80;;;;;;;;;;4246800;33;20143;-78
2023/05/08 13:41:57;;;;;;;1.85;1.70;;;;;;;;;;4232474;33;20106;-75
2023/05/08 13:44:24;;;;;;;4.80;2.15;;;;;;;;;;4229550;33;20068;-76
2023/05/08 13:46:50;;;;;;;2.55;1.52;;;;;;;;;;4230743;33;20188;-74
2023/05/08 13:49:18;;;;;;;2.25;1.60;;;;;;;;;;4232181;33;20892;-75
2023/05/08 13:51:51;;;;;;;1.77;1.67;;;;;;;;;;4234153;33;20444;-77
2023/05/08 13:54:17;;;;;;;2.33;1.70;;;;;;;;;;4236732;33;20062;-73
2023/05/08 13:56:43;;;;;;;4.93;1.52;;;;;;;;;;4234324;33;20387;-74
2023/05/08 13:59:11;;;;;;;2.30;1.48;;;;;;;;;;4233459;33;20047;-73
2023/05/08 14:01:36;;;;;;;6.18;1.85;;;;;;;;;;4259422;33;20182;-74
2023/05/08 14:04:03;;;;;;;1.98;1.87;;;;;;;;;;4260348;33;20057;-74
2023/05/08 14:06:29;;;;;;;2.12;1.80;;;;;;;;;;4266293;33;20144;-73
2023/05/08 14:08:55;;;;;;;2.60;1.77;;;;;;;;;;4260526;33;20488;-73
2023/05/08 14:11:22;;;;;;;1.52;1.35;;;;;;;;;;4235724;33;20101;-74
2023/05/08 14:13:48;;;;;;;2.17;1.80;;;;;;;;;;4248623;33;20066;-73
2023/05/08 14:16:15;;;;;;;3.55;2.40;;;;;;;;;;4251693;33;20832;-74
2023/05/08 14:18:41;;;;;;;1.83;1.65;;;;;;;;;;4251933;33;20054;-75
2023/05/08 14:21:07;;;;;;;1.83;1.73;;;;;;;;;;4251879;33;20042;-74
2023/05/08 14:23:34;;;;;;;2.12;1.42;;;;;;;;;;4251749;33;20047;-73
2023/05/08 14:26:01;;;;;;;3.35;1.60;;;;;;;;;;4248248;33;20168;-74
2023/05/08 14:28:27;;;;;;;1.70;1.60;;;;;;;;;;4252049;33;20074;-75
2023/05/08 14:30:53;;;;;;;1.77;1.70;;;;;;;;;;4251229;33;20050;-75
2023/05/08 14:33:19;;;;;;;4.03;1.55;;;;;;;;;;4263206;33;20471;-73
2023/05/08 14:35:47;;;;;;;10.35;3.17;;;;;;;;;;4256655;33;20056;-73
2023/05/08 14:38:13;;;;;;;5.55;1.90;;;;;;;;;;4263739;33;20053;-78
2023/05/08 14:40:43;;;;;;;4.78;2.00;;;;;;;;;;4264516;33;20046;-76
2023/05/08 14:43:17;;;;;;;3.08;1.77;;;;;;;;;;4279037;33;20459;-76
2023/05/08 14:45:43;;;;;;;1.80;1.70;;;;;;;;;;4276469;33;20041;-77
2023/05/08 14:48:12;;;;;;;1.50;1.45;;;;;;;;;;4271844;33;20059;-76
2023/05/08 14:50:47;;;;;;;4.87;1.95;;;;;;;;;;4279910;33;20046;-77
2023/05/08 14:53:25;;;;;;;3.20;2.30;;;;;;;;;;4275223;33;20080;-75
2023/05/08 14:56:10;;;;;;;1.60;1.50;;;;;;;;;;4274509;33;20083;-74
2023/05/08 14:58:37;;;;;;;1.40;1.40;;;;;;;;;;4280331;33;20057;-72
2023/05/08 15:01:04;;;;;;;1.60;1.50;;;;;;;;;;4279716;33;20052;-73
2023/05/08 15:03:30;;;;;;;2.45;1.70;;;;;;;;;;4266664;33;20073;-74
2023/05/08 15:05:57;;;;;;;4.00;2.37;;;;;;;;;;4264453;33;20033;-77
2023/05/08 15:08:23;;;;;;;2.47;1.60;;;;;;;;;;4265745;33;20092;-72
2023/05/08 15:10:49;;;;;;;2.28;1.65;;;;;;;;;;4266266;33;20046;-73
2023/05/08 15:13:15;;;;;;;4.15;1.70;;;;;;;;;;4265572;33;20071;-74
2023/05/08 15:15:41;;;;;;;2.45;1.70;;;;;;;;;;4264767;33;20073;-76
2023/05/08 15:18:07;;;;;;;1.70;1.62;;;;;;;;;;4264201;33;20067;-73
2023/05/08 15:20:34;;;;;;;2.80;2.30;;;;;;;;;;4273932;33;20072;-74
2023/05/08 15:23:00;;;;;;;1.70;1.60;;;;;;;;;;4282936;33;20087;-74
2023/05/08 15:25:26;;;;;;;3.05;2.12;;;;;;;;;;4282379;33;20057;-74
2023/05/08 15:27:52;;;;;;;2.42;1.42;;;;;;;;;;4279944;33;20500;-74
2023/05/08 15:30:18;;;;;;;2.47;2.00;;;;;;;;;;4278274;33;20026;-74
2023/05/08 15:32:45;;;;;;;1.30;1.30;;;;;;;;;;4259627;33;20449;-73
2023/05/08 15:35:11;;;;;;;1.73;1.62;;;;;;;;;;4252422;33;20069;-75
2023/05/08 15:37:38;;;;;;;8.73;1.67;;;;;;;;;;4251803;33;20518;-74
2023/05/08 15:40:04;;;;;;;2.30;1.95;;;;;;;;;;4251112;33;20443;-80
2023/05/08 15:42:31;;;;;;;7.22;2.03;;;;;;;;;;4251692;33;20566;-75
2023/05/08 15:44:57;;;;;;;1.77;1.67;;;;;;;;;;4252488;33;20056;-74
2023/05/08 15:47:25;;;;;;;3.30;1.83;;;;;;;;;;4252291;33;20038;-74
2023/05/08 15:49:52;;;;;;;1.60;1.52;;;;;;;;;;4223940;34;20043;-75
2023/05/08 15:52:18;;;;;;;2.72;1.58;;;;;;;;;;4222053;34;20420;-74
2023/05/08 15:54:44;;;;;;;5.82;1.83;;;;;;;;;;4223918;34;20046;-73
2023/05/08 15:57:11;;;;;;;1.92;1.75;;;;;;;;;;4223928;34;20069;-73
2023/05/08 15:59:37;;;;;;;1.92;1.83;;;;;;;;;;4223826;33;20039;-74
2023/05/08 16:02:03;;;;;;;1.95;1.45;;;;;;;;;;4226039;33;20080;-75
2023/05/08 16:04:29;;;;;;;2.55;1.90;;;;;;;;;;4231470;33;20042;-74
2023/05/08 16:06:57;;;;;;;3.28;2.30;;;;;;;;;;4223855;34;20047;-74
2023/05/08 16:09:23;;;;;;;1.70;1.42;;;;;;;;;;4224333;33;20066;-76
2023/05/08 16:11:49;;;;;;;5.03;2.35;;;;;;;;;;4224940;33;20102;-75
2023/05/08 16:14:15;;;;;;;1.52;1.40;;;;;;;;;;4220640;34;20480;-76
2023/05/08 16:16:42;;;;;;;1.60;1.50;;;;;;;;;;4222161;34;20106;-74
2023/05/08 16:19:08;;;;;;;7.78;2.33;;;;;;;;;;4222308;34;20571;-74
2023/05/08 16:21:34;;;;;;;2.65;1.58;;;;;;;;;;4208304;34;20063;-74
2023/05/08 16:24:00;;;;;;;2.08;1.98;;;;;;;;;;4222668;34;20170;-73
2023/05/08 16:26:27;;;;;;;3.37;2.12;;;;;;;;;;4221442;34;20068;-76
2023/05/08 16:28:53;;;;;;;4.40;1.50;;;;;;;;;;4222656;34;20032;-73
2023/05/08 16:31:19;;;;;;;3.37;1.40;;;;;;;;;;4221750;33;20076;-74
2023/05/08 16:33:45;;;;;;;1.70;1.45;;;;;;;;;;4221741;33;20038;-75
2023/05/08 16:36:12;;;;;;;1.90;1.80;;;;;;;;;;4209281;34;20090;-76
2023/05/08 16:38:37;;;;;;;2.80;1.87;;;;;;;;;;4217766;34;20031;-75
2023/05/08 16:41:04;;;;;;;3.10;1.80;;;;;;;;;;4233654;33;20046;-75
2023/05/08 16:43:31;;;;;;;2.45;1.58;;;;;;;;;;4237812;33;20562;-75
2023/05/08 16:45:57;;;;;;;3.62;1.40;;;;;;;;;;4237234;33;20120;-76
2023/05/08 16:48:24;;;;;;;1.50;1.40;;;;;;;;;;4235733;33;20465;-76